createdAt,value
2022-08-28T11:05:31.420Z,2.78
2022-08-28T11:08:05.098Z,3.55
2022-08-28T11:10:45.892Z,3.20
2022-08-28T11:13:13.251Z,3.15
2022-08-28T11:15:46.973Z,3.42
2022-08-28T11:18:17.695Z,3.50
2022-08-28T11:21:01.995Z,3.05
2022-08-28T11:23:38.728Z,4.00
2022-08-28T11:26:09.478Z,3.70
2022-08-28T11:28:36.519Z,3.20
2022-08-28T11:31:06.617Z,3.40
2022-08-28T11:33:52.575Z,3.50
2022-08-28T11:36:22.621Z,3.20
2022-08-28T11:38:53.172Z,3.60
2022-08-28T11:41:26.568Z,3.38
2022-08-28T11:44:11.331Z,3.35
2022-08-28T11:46:48.695Z,4.20
2022-08-28T11:49:27.574Z,3.30
2022-08-28T11:52:09.935Z,3.17
2022-08-28T11:54:48.338Z,3.13
2022-08-28T11:57:41.222Z,3.77
2022-08-28T12:00:10.757Z,3.42
2022-08-28T12:02:46.811Z,2.80
2022-08-28T12:05:16.716Z,2.97
2022-08-28T12:07:47.211Z,3.28
2022-08-28T12:10:20.207Z,2.83
2022-08-28T12:12:47.264Z,2.92
2022-08-28T12:15:33.367Z,3.65
2022-08-28T12:18:14.303Z,3.50
2022-08-28T12:20:56.990Z,3.30
2022-08-28T12:23:24.095Z,3.38
2022-08-28T12:26:11.213Z,3.22
2022-08-28T12:28:57.923Z,3.30
2022-08-28T12:32:07.737Z,3.45
2022-08-28T12:34:45.691Z,2.55
2022-08-28T12:37:52.595Z,2.83
2022-08-28T12:40:38.200Z,3.10
2022-08-28T12:43:09.101Z,3.03
2022-08-28T12:45:54.740Z,3.53
2022-08-28T12:48:26.127Z,3.13
2022-08-28T12:50:58.265Z,3.13
2022-08-28T12:53:26.963Z,2.90
2022-08-28T12:55:56.163Z,3.13
2022-08-28T12:58:39.334Z,2.95
2022-08-28T13:01:13.010Z,4.00
2022-08-28T13:04:20.908Z,3.17
2022-08-28T13:06:48.178Z,3.33
2022-08-28T13:09:18.703Z,2.90
2022-08-28T13:11:49.166Z,3.22
2022-08-28T13:14:40.387Z,2.67
2022-08-28T13:17:08.105Z,3.13
2022-08-28T13:19:36.567Z,2.75
2022-08-28T13:22:38.839Z,3.60
2022-08-28T13:25:06.667Z,2.65
2022-08-28T13:27:34.387Z,2.70
2022-08-28T13:30:08.232Z,2.38
2022-08-28T13:32:38.987Z,3.35
2022-08-28T13:35:17.955Z,2.60
2022-08-28T13:37:58.502Z,3.08
2022-08-28T13:43:17.697Z,2.30
2022-08-28T13:45:48.131Z,3.50
2022-08-28T13:48:18.039Z,2.85
2022-08-28T13:50:48.726Z,2.40
2022-08-28T13:53:17.703Z,3.30
2022-08-28T13:55:45.982Z,2.75
2022-08-28T13:58:13.946Z,3.63
2022-08-28T14:00:44.880Z,2.80
2022-08-28T14:03:30.915Z,2.60
2022-08-28T14:05:58.098Z,2.55
2022-08-28T14:08:25.257Z,2.65
2022-08-28T14:10:52.392Z,3.08
2022-08-28T14:13:20.177Z,2.45
2022-08-28T14:15:47.508Z,3.35
2022-08-28T14:18:14.618Z,2.97
2022-08-28T14:20:41.795Z,3.20
2022-08-28T14:23:11.454Z,2.97
2022-08-28T14:25:43.809Z,2.75
2022-08-28T14:28:12.494Z,2.42
2022-08-28T14:30:45.424Z,3.67
2022-08-28T14:33:14.960Z,2.55
2022-08-28T14:35:42.901Z,2.97
2022-08-28T14:38:10.682Z,3.40
2022-08-28T14:40:42.694Z,3.20
2022-08-28T14:43:14.525Z,3.65
2022-08-28T14:45:44.165Z,3.08
2022-08-28T14:48:11.457Z,2.55
2022-08-28T14:50:40.903Z,2.40
2022-08-28T14:53:08.727Z,2.88
2022-08-28T14:55:44.225Z,3.33
2022-08-28T14:58:12.832Z,3.63
2022-08-28T15:00:42.424Z,3.10
2022-08-28T15:03:10.750Z,3.83
2022-08-28T15:05:38.259Z,3.17
2022-08-28T15:08:11.248Z,2.75
2022-08-28T15:10:39.987Z,2.65
2022-08-28T15:13:09.870Z,3.00
2022-08-28T15:15:39.480Z,3.17
2022-08-28T15:18:07.895Z,2.92
2022-08-28T15:20:43.687Z,2.03
2022-08-28T15:23:11.712Z,2.72
2022-08-28T15:25:39.069Z,3.17
2022-08-28T15:28:06.941Z,2.60
2022-08-28T15:30:34.569Z,3.83
2022-08-28T15:33:02.295Z,2.92
2022-08-28T15:35:29.670Z,3.08
2022-08-28T15:37:57.064Z,2.85
2022-08-28T15:40:42.582Z,3.30
2022-08-28T15:43:09.839Z,3.00
2022-08-28T15:45:39.145Z,2.45
2022-08-28T15:48:07.614Z,2.35
2022-08-28T15:50:35.536Z,2.40
2022-08-28T15:53:04.475Z,2.50
2022-08-28T15:55:34.234Z,3.65
2022-08-28T15:58:13.668Z,2.30
2022-08-28T16:00:42.288Z,2.88
2022-08-28T16:03:09.459Z,2.80
2022-08-28T16:05:40.664Z,3.15
2022-08-28T16:08:10.288Z,3.28
2022-08-28T16:10:38.091Z,3.03
2022-08-28T16:13:06.577Z,3.13
2022-08-28T16:15:34.831Z,2.83
2022-08-28T16:18:02.166Z,3.07
2022-08-28T16:20:29.349Z,2.55
2022-08-28T16:22:56.550Z,2.40
2022-08-28T16:25:23.644Z,3.20
2022-08-28T16:27:50.753Z,2.83
2022-08-28T16:30:18.568Z,3.13
2022-08-28T16:32:46.733Z,2.33
2022-08-28T16:35:15.677Z,3.92
2022-08-28T16:37:43.001Z,3.33
2022-08-28T16:40:10.933Z,2.50
2022-08-28T16:42:38.530Z,3.40
2022-08-28T16:45:06.659Z,3.08
2022-08-28T16:47:36.331Z,3.07
2022-08-28T16:50:11.740Z,3.28
2022-08-28T16:52:39.007Z,3.53
2022-08-28T16:55:07.993Z,3.17
2022-08-28T16:57:35.121Z,2.55
2022-08-28T17:00:03.613Z,2.90
2022-08-28T17:02:30.814Z,2.63
2022-08-28T17:05:01.837Z,4.20
2022-08-28T17:07:29.100Z,2.95
2022-08-28T17:09:56.200Z,2.83
2022-08-28T17:12:23.395Z,3.47
2022-08-28T17:14:50.534Z,3.13
2022-08-28T17:17:18.161Z,3.28
2022-08-28T17:19:45.334Z,2.95
2022-08-28T17:22:31.044Z,3.13
2022-08-28T17:25:13.468Z,4.78
2022-08-28T17:27:41.415Z,3.05
2022-08-28T17:30:09.882Z,3.22
2022-08-28T17:32:37.244Z,3.47
2022-08-28T17:35:05.451Z,2.63
2022-08-28T17:37:32.831Z,3.67
2022-08-28T17:39:59.988Z,3.22
2022-08-28T17:42:27.141Z,2.45
2022-08-28T17:44:54.231Z,2.97
2022-08-28T17:47:26.401Z,2.65
2022-08-28T17:50:01.656Z,2.58
2022-08-28T17:52:29.462Z,2.60
2022-08-28T17:54:56.835Z,2.90
2022-08-28T17:57:28.633Z,3.28
2022-08-28T17:59:57.866Z,2.72
2022-08-28T18:04:52.553Z,3.13
2022-08-28T18:07:19.824Z,2.60
2022-08-28T18:09:50.805Z,2.65
2022-08-28T18:12:17.988Z,2.63
2022-08-28T18:14:45.190Z,2.75
2022-08-28T18:17:13.424Z,2.72
2022-08-28T18:19:40.611Z,3.05
2022-08-28T18:22:10.321Z,2.30
2022-08-28T18:24:37.889Z,2.17
2022-08-28T18:27:07.482Z,2.58
2022-08-28T18:29:36.588Z,2.40
2022-08-28T18:32:04.805Z,2.05
2022-08-28T18:34:32.087Z,2.40
2022-08-28T18:37:00.781Z,2.55
2022-08-28T18:39:29.804Z,2.90
2022-08-28T18:44:25.184Z,2.13
2022-08-28T18:46:52.618Z,2.05
2022-08-28T18:49:20.118Z,2.08
2022-08-28T18:51:47.569Z,2.97
2022-08-28T18:54:18.126Z,2.35
2022-08-28T18:56:48.316Z,2.25
2022-08-28T18:59:17.412Z,2.13
2022-08-28T19:01:44.803Z,2.67
2022-08-28T19:04:12.014Z,2.45
2022-08-28T19:06:40.527Z,2.33
2022-08-28T19:09:07.637Z,2.30
2022-08-28T19:11:35.799Z,2.20
2022-08-28T19:14:03.849Z,1.70
2022-08-28T19:16:32.188Z,2.07
2022-08-28T19:19:00.375Z,2.03
2022-08-28T19:21:29.020Z,2.05
2022-08-28T19:23:56.894Z,1.70
2022-08-28T19:26:25.786Z,2.40
2022-08-28T19:28:53.355Z,1.60
2022-08-28T19:31:21.052Z,1.58
2022-08-28T19:33:48.290Z,1.80
2022-08-28T19:36:15.429Z,1.58
2022-08-28T19:38:43.336Z,1.75
2022-08-28T19:41:12.884Z,2.05
2022-08-28T19:43:44.574Z,1.48
2022-08-28T19:46:18.224Z,2.03
2022-08-28T19:48:48.496Z,1.90
2022-08-28T19:51:22.731Z,1.70
2022-08-28T19:53:57.354Z,1.98
2022-08-28T19:56:27.547Z,1.40
2022-08-28T19:58:57.372Z,1.70
2022-08-28T20:01:29.728Z,1.50
2022-08-28T20:03:58.805Z,1.70
2022-08-28T20:06:27.048Z,1.25
2022-08-28T20:08:54.176Z,1.42
2022-08-28T20:11:30.240Z,1.60
2022-08-28T20:14:04.294Z,2.35
2022-08-28T20:16:38.505Z,1.33
2022-08-28T20:19:07.850Z,1.65
2022-08-28T20:24:07.508Z,1.75
2022-08-28T20:29:03.161Z,1.20
2022-08-28T20:31:30.330Z,1.52
2022-08-28T20:33:57.521Z,1.98
2022-08-28T20:36:26.174Z,1.50
2022-08-28T20:38:53.401Z,1.70
2022-08-28T20:41:22.645Z,1.73
2022-08-28T20:43:50.072Z,1.17
2022-08-28T20:46:17.757Z,1.58
2022-08-28T20:48:45.202Z,2.00
2022-08-28T20:51:12.510Z,1.73
2022-08-28T20:53:40.041Z,1.58
2022-08-28T20:56:09.414Z,1.42
2022-08-28T21:01:05.577Z,1.40
2022-08-28T21:03:32.849Z,1.45
2022-08-28T21:06:00.085Z,1.50
2022-08-28T21:08:27.363Z,1.40
2022-08-28T21:10:54.448Z,1.60
2022-08-28T21:13:21.678Z,1.48
2022-08-28T21:15:48.777Z,1.80
2022-08-28T21:18:16.510Z,1.10
2022-08-28T21:20:44.561Z,1.20
2022-08-28T21:23:11.805Z,1.67
2022-08-28T21:25:41.111Z,1.00
2022-08-28T21:30:35.518Z,1.63
2022-08-28T21:33:03.090Z,1.70
2022-08-28T21:35:30.277Z,1.42
2022-08-28T21:37:57.395Z,1.35
2022-08-28T21:40:24.672Z,2.17
2022-08-28T21:42:51.927Z,1.65
2022-08-28T21:45:19.057Z,1.70
2022-08-28T21:47:46.171Z,1.17
2022-08-28T21:50:13.386Z,1.50
2022-08-28T21:52:41.049Z,1.90
2022-08-28T21:55:11.844Z,1.98
2022-08-28T21:57:39.131Z,1.45
2022-08-28T22:00:09.769Z,2.00
2022-08-28T22:02:36.881Z,1.50
2022-08-28T22:05:04.553Z,1.52
2022-08-28T22:07:31.711Z,1.13
2022-08-28T22:09:58.816Z,1.80
2022-08-28T22:12:25.957Z,1.30
2022-08-28T22:14:54.159Z,1.48
2022-08-28T22:17:21.574Z,1.65
2022-08-28T22:19:48.670Z,1.35
2022-08-28T22:22:35.317Z,1.35
2022-08-28T22:25:04.067Z,1.77
2022-08-28T22:27:34.632Z,1.70
2022-08-28T22:30:01.855Z,1.23
2022-08-28T22:32:28.986Z,1.45
2022-08-28T22:34:56.182Z,2.40
2022-08-28T22:37:24.026Z,1.33
2022-08-28T22:39:51.510Z,1.63
2022-08-28T22:42:18.667Z,1.65
2022-08-28T22:44:46.879Z,1.40
2022-08-28T22:47:14.158Z,1.42
2022-08-28T22:49:41.312Z,1.63
2022-08-28T22:52:11.681Z,2.72
2022-08-28T22:54:38.939Z,1.67
2022-08-28T22:57:06.327Z,1.45
2022-08-28T22:59:34.707Z,1.75
2022-08-28T23:02:03.471Z,1.30
2022-08-28T23:04:31.055Z,1.55
2022-08-28T23:06:58.271Z,1.50
2022-08-28T23:09:25.571Z,1.33
2022-08-28T23:11:52.917Z,1.48
2022-08-28T23:14:20.072Z,1.17
2022-08-28T23:16:47.198Z,1.80
2022-08-28T23:19:16.872Z,2.00
2022-08-28T23:21:44.462Z,2.15
2022-08-28T23:24:13.152Z,1.42
2022-08-28T23:26:41.301Z,1.80
2022-08-28T23:29:09.855Z,1.40
2022-08-28T23:31:38.009Z,1.50
2022-08-28T23:34:05.924Z,2.08
2022-08-28T23:36:35.596Z,1.67
2022-08-28T23:39:04.492Z,2.60
2022-08-28T23:41:32.792Z,1.85
2022-08-28T23:44:00.053Z,1.70
2022-08-28T23:46:27.161Z,1.55
2022-08-28T23:48:54.361Z,1.50
2022-08-28T23:51:21.988Z,1.58
2022-08-28T23:53:49.571Z,1.52
2022-08-28T23:56:17.336Z,2.10
2022-08-28T23:58:45.595Z,1.52
